sensor_id;sensor_type;location;lat;lon;timestamp;P1;durP1;ratioP1;P2;durP2;ratioP2
13708;SDS011;54933;51.908;7.730;2023-02-26T00:02:05;0.60;;;0.60;;
13708;SDS011;54933;51.908;7.730;2023-02-26T00:04:30;0.60;;;0.60;;
13708;SDS011;54933;51.908;7.730;2023-02-26T00:06:56;0.30;;;0.30;;
13708;SDS011;54933;51.908;7.730;2023-02-26T00:09:21;1.40;;;0.57;;
13708;SDS011;54933;51.908;7.730;2023-02-26T00:11:47;1.70;;;0.50;;
13708;SDS011;54933;51.908;7.730;2023-02-26T00:14:13;0.50;;;0.50;;
13708;SDS011;54933;51.908;7.730;2023-02-26T00:16:40;0.40;;;0.40;;
13708;SDS011;54933;51.908;7.730;2023-02-26T00:19:06;1.20;;;0.67;;
13708;SDS011;54933;51.908;7.730;2023-02-26T00:21:34;0.67;;;0.67;;
13708;SDS011;54933;51.908;7.730;2023-02-26T00:24:00;1.33;;;0.50;;
13708;SDS011;54933;51.908;7.730;2023-02-26T00:26:27;2.20;;;0.50;;
13708;SDS011;54933;51.908;7.730;2023-02-26T00:28:54;0.40;;;0.40;;
13708;SDS011;54933;51.908;7.730;2023-02-26T00:31:20;1.80;;;0.60;;
13708;SDS011;54933;51.908;7.730;2023-02-26T00:33:50;1.17;;;0.50;;
13708;SDS011;54933;51.908;7.730;2023-02-26T00:38:44;0.50;;;0.50;;
13708;SDS011;54933;51.908;7.730;2023-02-26T00:41:28;0.50;;;0.50;;
13708;SDS011;54933;51.908;7.730;2023-02-26T00:43:54;0.47;;;0.47;;
13708;SDS011;54933;51.908;7.730;2023-02-26T00:46:37;0.43;;;0.43;;
13708;SDS011;54933;51.908;7.730;2023-02-26T00:49:15;1.03;;;0.70;;
13708;SDS011;54933;51.908;7.730;2023-02-26T00:51:50;0.77;;;0.77;;
13708;SDS011;54933;51.908;7.730;2023-02-26T00:54:23;0.73;;;0.60;;
13708;SDS011;54933;51.908;7.730;2023-02-26T00:56:50;0.40;;;0.40;;
13708;SDS011;54933;51.908;7.730;2023-02-26T00:59:17;0.50;;;0.40;;
13708;SDS011;54933;51.908;7.730;2023-02-26T01:01:43;0.63;;;0.57;;
13708;SDS011;54933;51.908;7.730;2023-02-26T01:04:09;0.47;;;0.47;;
13708;SDS011;54933;51.908;7.730;2023-02-26T01:06:37;1.13;;;0.60;;
13708;SDS011;54933;51.908;7.730;2023-02-26T01:11:39;0.47;;;0.47;;
13708;SDS011;54933;51.908;7.730;2023-02-26T01:14:04;0.67;;;0.50;;
13708;SDS011;54933;51.908;7.730;2023-02-26T01:16:32;0.30;;;0.30;;
13708;SDS011;54933;51.908;7.730;2023-02-26T01:19:12;0.73;;;0.57;;
13708;SDS011;54933;51.908;7.730;2023-02-26T01:21:49;0.30;;;0.30;;
13708;SDS011;54933;51.908;7.730;2023-02-26T01:24:20;0.77;;;0.67;;
13708;SDS011;54933;51.908;7.730;2023-02-26T01:26:48;2.23;;;0.60;;
13708;SDS011;54933;51.908;7.730;2023-02-26T01:29:14;0.30;;;0.30;;
13708;SDS011;54933;51.908;7.730;2023-02-26T01:31:52;0.50;;;0.50;;
13708;SDS011;54933;51.908;7.730;2023-02-26T01:37:18;0.80;;;0.80;;
13708;SDS011;54933;51.908;7.730;2023-02-26T01:39:56;0.50;;;0.50;;
13708;SDS011;54933;51.908;7.730;2023-02-26T01:42:43;0.77;;;0.50;;
13708;SDS011;54933;51.908;7.730;2023-02-26T01:45:14;0.30;;;0.30;;
13708;SDS011;54933;51.908;7.730;2023-02-26T01:47:50;1.07;;;0.50;;
13708;SDS011;54933;51.908;7.730;2023-02-26T01:50:22;0.40;;;0.40;;
13708;SDS011;54933;51.908;7.730;2023-02-26T01:53:38;0.50;;;0.50;;
13708;SDS011;54933;51.908;7.730;2023-02-26T01:55:47;1.30;;;0.50;;
13708;SDS011;54933;51.908;7.730;2023-02-26T01:58:15;0.50;;;0.50;;
13708;SDS011;54933;51.908;7.730;2023-02-26T02:00:42;0.97;;;0.40;;
13708;SDS011;54933;51.908;7.730;2023-02-26T02:03:08;0.40;;;0.40;;
13708;SDS011;54933;51.908;7.730;2023-02-26T02:05:36;0.20;;;0.20;;
13708;SDS011;54933;51.908;7.730;2023-02-26T02:08:06;0.73;;;0.73;;
13708;SDS011;54933;51.908;7.730;2023-02-26T02:10:32;0.40;;;0.40;;
13708;SDS011;54933;51.908;7.730;2023-02-26T02:13:02;0.33;;;0.33;;
13708;SDS011;54933;51.908;7.730;2023-02-26T02:18:44;0.63;;;0.50;;
13708;SDS011;54933;51.908;7.730;2023-02-26T02:24:21;0.60;;;0.60;;
13708;SDS011;54933;51.908;7.730;2023-02-26T02:27:01;0.40;;;0.40;;
13708;SDS011;54933;51.908;7.730;2023-02-26T02:32:30;0.57;;;0.57;;
13708;SDS011;54933;51.908;7.730;2023-02-26T02:37:57;0.40;;;0.40;;
13708;SDS011;54933;51.908;7.730;2023-02-26T02:40:34;0.60;;;0.50;;
13708;SDS011;54933;51.908;7.730;2023-02-26T02:43:18;0.30;;;0.30;;
13708;SDS011;54933;51.908;7.730;2023-02-26T02:48:28;0.50;;;0.50;;
13708;SDS011;54933;51.908;7.730;2023-02-26T02:51:00;0.30;;;0.30;;
13708;SDS011;54933;51.908;7.730;2023-02-26T02:53:37;0.43;;;0.43;;
13708;SDS011;54933;51.908;7.730;2023-02-26T02:58:43;0.30;;;0.30;;
13708;SDS011;54933;51.908;7.730;2023-02-26T03:01:14;1.07;;;0.40;;
13708;SDS011;54933;51.908;7.730;2023-02-26T03:03:44;0.30;;;0.30;;
13708;SDS011;54933;51.908;7.730;2023-02-26T03:06:16;3.93;;;0.57;;
13708;SDS011;54933;51.908;7.730;2023-02-26T03:08:42;0.40;;;0.40;;
13708;SDS011;54933;51.908;7.730;2023-02-26T03:11:09;0.30;;;0.30;;
13708;SDS011;54933;51.908;7.730;2023-02-26T03:13:34;0.67;;;0.40;;
13708;SDS011;54933;51.908;7.730;2023-02-26T03:19:00;0.57;;;0.40;;
13708;SDS011;54933;51.908;7.730;2023-02-26T03:21:47;0.50;;;0.50;;
13708;SDS011;54933;51.908;7.730;2023-02-26T03:24:58;0.50;;;0.50;;
13708;SDS011;54933;51.908;7.730;2023-02-26T03:29:53;2.20;;;0.50;;
13708;SDS011;54933;51.908;7.730;2023-02-26T03:35:12;0.30;;;0.30;;
13708;SDS011;54933;51.908;7.730;2023-02-26T03:37:41;0.80;;;0.40;;
13708;SDS011;54933;51.908;7.730;2023-02-26T03:40:11;1.27;;;0.70;;
13708;SDS011;54933;51.908;7.730;2023-02-26T03:42:52;0.50;;;0.50;;
13708;SDS011;54933;51.908;7.730;2023-02-26T03:45:30;1.53;;;0.40;;
13708;SDS011;54933;51.908;7.730;2023-02-26T03:47:58;0.30;;;0.30;;
13708;SDS011;54933;51.908;7.730;2023-02-26T03:50:31;0.33;;;0.27;;
13708;SDS011;54933;51.908;7.730;2023-02-26T03:53:01;0.57;;;0.57;;
13708;SDS011;54933;51.908;7.730;2023-02-26T03:55:32;0.30;;;0.30;;
13708;SDS011;54933;51.908;7.730;2023-02-26T03:58:03;0.40;;;0.40;;
13708;SDS011;54933;51.908;7.730;2023-02-26T04:00:30;0.50;;;0.50;;
13708;SDS011;54933;51.908;7.730;2023-02-26T04:06:02;0.40;;;0.40;;
13708;SDS011;54933;51.908;7.730;2023-02-26T04:08:28;0.30;;;0.30;;
13708;SDS011;54933;51.908;7.730;2023-02-26T04:10:59;0.40;;;0.40;;
13708;SDS011;54933;51.908;7.730;2023-02-26T04:13:35;0.40;;;0.40;;
13708;SDS011;54933;51.908;7.730;2023-02-26T04:16:00;0.40;;;0.40;;
13708;SDS011;54933;51.908;7.730;2023-02-26T04:18:26;0.30;;;0.30;;
13708;SDS011;54933;51.908;7.730;2023-02-26T04:20:51;0.30;;;0.30;;
13708;SDS011;54933;51.908;7.730;2023-02-26T04:23:16;0.30;;;0.30;;
13708;SDS011;54933;51.908;7.730;2023-02-26T04:25:43;0.50;;;0.30;;
13708;SDS011;54933;51.908;7.730;2023-02-26T04:28:09;0.40;;;0.40;;
13708;SDS011;54933;51.908;7.730;2023-02-26T04:30:34;0.20;;;0.20;;
13708;SDS011;54933;51.908;7.730;2023-02-26T04:32:59;0.30;;;0.30;;
13708;SDS011;54933;51.908;7.730;2023-02-26T04:35:24;0.40;;;0.40;;
13708;SDS011;54933;51.908;7.730;2023-02-26T04:37:50;0.40;;;0.30;;
13708;SDS011;54933;51.908;7.730;2023-02-26T04:40:15;0.10;;;0.10;;
13708;SDS011;54933;51.908;7.730;2023-02-26T04:42:40;0.50;;;0.27;;
13708;SDS011;54933;51.908;7.730;2023-02-26T04:45:06;0.83;;;0.30;;
13708;SDS011;54933;51.908;7.730;2023-02-26T04:47:31;0.33;;;0.30;;
13708;SDS011;54933;51.908;7.730;2023-02-26T04:49:56;0.93;;;0.37;;
13708;SDS011;54933;51.908;7.730;2023-02-26T04:52:22;1.10;;;0.30;;
13708;SDS011;54933;51.908;7.730;2023-02-26T04:54:47;0.73;;;0.20;;
13708;SDS011;54933;51.908;7.730;2023-02-26T04:57:12;0.40;;;0.40;;
13708;SDS011;54933;51.908;7.730;2023-02-26T04:59:38;0.90;;;0.30;;
13708;SDS011;54933;51.908;7.730;2023-02-26T05:02:03;0.33;;;0.30;;
13708;SDS011;54933;51.908;7.730;2023-02-26T05:04:29;0.30;;;0.30;;
13708;SDS011;54933;51.908;7.730;2023-02-26T05:06:55;0.20;;;0.10;;
13708;SDS011;54933;51.908;7.730;2023-02-26T05:09:21;0.30;;;0.30;;
13708;SDS011;54933;51.908;7.730;2023-02-26T05:11:46;0.60;;;0.40;;
13708;SDS011;54933;51.908;7.730;2023-02-26T05:14:12;0.20;;;0.20;;
13708;SDS011;54933;51.908;7.730;2023-02-26T05:16:38;0.20;;;0.20;;
13708;SDS011;54933;51.908;7.730;2023-02-26T05:19:03;0.40;;;0.40;;
13708;SDS011;54933;51.908;7.730;2023-02-26T05:21:28;0.40;;;0.40;;
13708;SDS011;54933;51.908;7.730;2023-02-26T05:23:54;0.40;;;0.40;;
13708;SDS011;54933;51.908;7.730;2023-02-26T05:26:19;0.40;;;0.40;;
13708;SDS011;54933;51.908;7.730;2023-02-26T05:28:44;0.43;;;0.43;;
13708;SDS011;54933;51.908;7.730;2023-02-26T05:31:10;0.70;;;0.40;;
13708;SDS011;54933;51.908;7.730;2023-02-26T05:33:36;0.20;;;0.20;;
13708;SDS011;54933;51.908;7.730;2023-02-26T05:36:02;0.30;;;0.30;;
13708;SDS011;54933;51.908;7.730;2023-02-26T05:38:27;0.40;;;0.40;;
13708;SDS011;54933;51.908;7.730;2023-02-26T05:40:55;2.33;;;0.30;;
13708;SDS011;54933;51.908;7.730;2023-02-26T05:43:20;0.20;;;0.20;;
13708;SDS011;54933;51.908;7.730;2023-02-26T05:45:48;0.20;;;0.20;;
13708;SDS011;54933;51.908;7.730;2023-02-26T05:48:14;0.20;;;0.20;;
13708;SDS011;54933;51.908;7.730;2023-02-26T05:50:39;0.30;;;0.30;;
13708;SDS011;54933;51.908;7.730;2023-02-26T05:53:04;0.40;;;0.40;;
13708;SDS011;54933;51.908;7.730;2023-02-26T05:55:30;0.20;;;0.20;;
13708;SDS011;54933;51.908;7.730;2023-02-26T05:57:55;0.43;;;0.40;;
13708;SDS011;54933;51.908;7.730;2023-02-26T06:00:20;0.30;;;0.30;;
13708;SDS011;54933;51.908;7.730;2023-02-26T06:02:45;0.37;;;0.30;;
13708;SDS011;54933;51.908;7.730;2023-02-26T06:05:11;0.30;;;0.30;;
13708;SDS011;54933;51.908;7.730;2023-02-26T06:07:36;0.20;;;0.20;;
13708;SDS011;54933;51.908;7.730;2023-02-26T06:10:02;1.20;;;0.50;;
13708;SDS011;54933;51.908;7.730;2023-02-26T06:12:27;0.53;;;0.30;;
13708;SDS011;54933;51.908;7.730;2023-02-26T06:14:53;0.37;;;0.30;;
13708;SDS011;54933;51.908;7.730;2023-02-26T06:17:18;0.37;;;0.30;;
13708;SDS011;54933;51.908;7.730;2023-02-26T06:19:43;0.30;;;0.30;;
13708;SDS011;54933;51.908;7.730;2023-02-26T06:22:09;0.67;;;0.20;;
13708;SDS011;54933;51.908;7.730;2023-02-26T06:24:34;0.30;;;0.30;;
13708;SDS011;54933;51.908;7.730;2023-02-26T06:27:00;0.23;;;0.23;;
13708;SDS011;54933;51.908;7.730;2023-02-26T06:29:25;0.30;;;0.30;;
13708;SDS011;54933;51.908;7.730;2023-02-26T06:31:50;0.20;;;0.20;;
13708;SDS011;54933;51.908;7.730;2023-02-26T06:34:16;0.40;;;0.40;;
13708;SDS011;54933;51.908;7.730;2023-02-26T06:36:41;0.73;;;0.30;;
13708;SDS011;54933;51.908;7.730;2023-02-26T06:39:06;0.83;;;0.40;;
13708;SDS011;54933;51.908;7.730;2023-02-26T06:41:32;0.30;;;0.30;;
13708;SDS011;54933;51.908;7.730;2023-02-26T06:43:58;0.13;;;0.13;;
13708;SDS011;54933;51.908;7.730;2023-02-26T06:46:23;0.20;;;0.20;;
13708;SDS011;54933;51.908;7.730;2023-02-26T06:48:48;0.50;;;0.50;;
13708;SDS011;54933;51.908;7.730;2023-02-26T06:51:14;0.53;;;0.40;;
13708;SDS011;54933;51.908;7.730;2023-02-26T06:53:39;0.30;;;0.30;;
13708;SDS011;54933;51.908;7.730;2023-02-26T06:56:04;0.30;;;0.30;;
13708;SDS011;54933;51.908;7.730;2023-02-26T06:58:30;0.30;;;0.30;;
13708;SDS011;54933;51.908;7.730;2023-02-26T07:00:55;0.47;;;0.43;;
13708;SDS011;54933;51.908;7.730;2023-02-26T07:03:20;0.30;;;0.30;;
13708;SDS011;54933;51.908;7.730;2023-02-26T07:05:46;0.30;;;0.30;;
13708;SDS011;54933;51.908;7.730;2023-02-26T07:08:11;0.40;;;0.30;;
13708;SDS011;54933;51.908;7.730;2023-02-26T07:10:37;0.30;;;0.30;;
13708;SDS011;54933;51.908;7.730;2023-02-26T07:13:03;0.40;;;0.40;;
13708;SDS011;54933;51.908;7.730;2023-02-26T07:15:28;0.60;;;0.30;;
13708;SDS011;54933;51.908;7.730;2023-02-26T07:17:54;0.50;;;0.50;;
13708;SDS011;54933;51.908;7.730;2023-02-26T07:20:19;0.50;;;0.50;;
13708;SDS011;54933;51.908;7.730;2023-02-26T07:22:46;0.27;;;0.27;;
13708;SDS011;54933;51.908;7.730;2023-02-26T07:25:12;0.70;;;0.30;;
13708;SDS011;54933;51.908;7.730;2023-02-26T07:27:37;0.40;;;0.40;;
13708;SDS011;54933;51.908;7.730;2023-02-26T07:30:03;0.20;;;0.20;;
13708;SDS011;54933;51.908;7.730;2023-02-26T07:32:30;0.30;;;0.30;;
13708;SDS011;54933;51.908;7.730;2023-02-26T07:34:56;0.30;;;0.30;;
13708;SDS011;54933;51.908;7.730;2023-02-26T07:37:21;0.43;;;0.40;;
13708;SDS011;54933;51.908;7.730;2023-02-26T07:39:46;2.63;;;0.37;;
13708;SDS011;54933;51.908;7.730;2023-02-26T07:42:12;1.27;;;0.40;;
13708;SDS011;54933;51.908;7.730;2023-02-26T07:44:37;0.20;;;0.20;;
13708;SDS011;54933;51.908;7.730;2023-02-26T07:47:02;0.93;;;0.57;;
13708;SDS011;54933;51.908;7.730;2023-02-26T07:49:28;0.60;;;0.60;;
13708;SDS011;54933;51.908;7.730;2023-02-26T07:51:53;0.30;;;0.30;;
13708;SDS011;54933;51.908;7.730;2023-02-26T07:54:18;0.40;;;0.40;;
13708;SDS011;54933;51.908;7.730;2023-02-26T07:56:44;0.27;;;0.27;;
13708;SDS011;54933;51.908;7.730;2023-02-26T07:59:10;0.63;;;0.30;;
13708;SDS011;54933;51.908;7.730;2023-02-26T08:01:35;0.47;;;0.47;;
13708;SDS011;54933;51.908;7.730;2023-02-26T08:04:01;0.30;;;0.30;;
13708;SDS011;54933;51.908;7.730;2023-02-26T08:06:27;0.40;;;0.40;;
13708;SDS011;54933;51.908;7.730;2023-02-26T08:08:53;0.83;;;0.43;;
13708;SDS011;54933;51.908;7.730;2023-02-26T08:11:18;0.50;;;0.50;;
13708;SDS011;54933;51.908;7.730;2023-02-26T08:13:43;0.50;;;0.20;;
13708;SDS011;54933;51.908;7.730;2023-02-26T08:16:09;0.30;;;0.30;;
13708;SDS011;54933;51.908;7.730;2023-02-26T08:18:34;1.13;;;0.30;;
13708;SDS011;54933;51.908;7.730;2023-02-26T08:20:59;0.40;;;0.40;;
13708;SDS011;54933;51.908;7.730;2023-02-26T08:23:24;0.60;;;0.40;;
13708;SDS011;54933;51.908;7.730;2023-02-26T08:25:50;0.20;;;0.20;;
13708;SDS011;54933;51.908;7.730;2023-02-26T08:28:23;1.10;;;0.30;;
13708;SDS011;54933;51.908;7.730;2023-02-26T08:30:51;0.20;;;0.17;;
13708;SDS011;54933;51.908;7.730;2023-02-26T08:33:16;0.30;;;0.30;;
13708;SDS011;54933;51.908;7.730;2023-02-26T08:35:42;0.33;;;0.27;;
13708;SDS011;54933;51.908;7.730;2023-02-26T08:38:07;0.83;;;0.50;;
13708;SDS011;54933;51.908;7.730;2023-02-26T08:40:32;0.30;;;0.30;;
13708;SDS011;54933;51.908;7.730;2023-02-26T08:42:57;0.83;;;0.40;;
13708;SDS011;54933;51.908;7.730;2023-02-26T08:45:23;0.50;;;0.50;;
13708;SDS011;54933;51.908;7.730;2023-02-26T08:47:48;1.97;;;0.40;;
13708;SDS011;54933;51.908;7.730;2023-02-26T08:50:13;1.30;;;0.37;;
13708;SDS011;54933;51.908;7.730;2023-02-26T08:52:38;0.80;;;0.37;;
13708;SDS011;54933;51.908;7.730;2023-02-26T08:55:04;0.50;;;0.50;;
13708;SDS011;54933;51.908;7.730;2023-02-26T08:57:30;0.40;;;0.40;;
13708;SDS011;54933;51.908;7.730;2023-02-26T08:59:55;2.23;;;0.40;;
13708;SDS011;54933;51.908;7.730;2023-02-26T09:02:21;2.23;;;0.30;;
13708;SDS011;54933;51.908;7.730;2023-02-26T09:04:46;1.10;;;0.40;;
13708;SDS011;54933;51.908;7.730;2023-02-26T09:07:12;1.27;;;0.57;;
13708;SDS011;54933;51.908;7.730;2023-02-26T09:09:37;0.40;;;0.40;;
13708;SDS011;54933;51.908;7.730;2023-02-26T09:12:02;0.40;;;0.40;;
13708;SDS011;54933;51.908;7.730;2023-02-26T09:14:28;0.57;;;0.40;;
13708;SDS011;54933;51.908;7.730;2023-02-26T09:16:53;1.23;;;0.57;;
13708;SDS011;54933;51.908;7.730;2023-02-26T09:19:18;0.87;;;0.50;;
13708;SDS011;54933;51.908;7.730;2023-02-26T09:21:44;1.50;;;0.50;;
13708;SDS011;54933;51.908;7.730;2023-02-26T09:24:09;3.97;;;0.60;;
13708;SDS011;54933;51.908;7.730;2023-02-26T09:26:35;0.60;;;0.60;;
13708;SDS011;54933;51.908;7.730;2023-02-26T09:29:02;0.30;;;0.30;;
13708;SDS011;54933;51.908;7.730;2023-02-26T09:31:27;0.97;;;0.60;;
13708;SDS011;54933;51.908;7.730;2023-02-26T09:33:52;0.83;;;0.30;;
13708;SDS011;54933;51.908;7.730;2023-02-26T09:36:18;1.70;;;0.50;;
13708;SDS011;54933;51.908;7.730;2023-02-26T09:38:43;1.60;;;0.70;;
13708;SDS011;54933;51.908;7.730;2023-02-26T09:44:18;1.57;;;0.80;;
13708;SDS011;54933;51.908;7.730;2023-02-26T09:46:47;1.60;;;0.70;;
13708;SDS011;54933;51.908;7.730;2023-02-26T09:49:43;2.77;;;1.40;;
13708;SDS011;54933;51.908;7.730;2023-02-26T09:52:22;1.73;;;0.57;;
13708;SDS011;54933;51.908;7.730;2023-02-26T09:54:52;4.60;;;0.77;;
13708;SDS011;54933;51.908;7.730;2023-02-26T09:57:32;19.43;;;1.77;;
13708;SDS011;54933;51.908;7.730;2023-02-26T09:59:59;118.20;;;6.47;;
13708;SDS011;54933;51.908;7.730;2023-02-26T10:02:32;25.90;;;2.77;;
13708;SDS011;54933;51.908;7.730;2023-02-26T10:05:09;26.80;;;2.77;;
13708;SDS011;54933;51.908;7.730;2023-02-26T10:07:45;24.67;;;2.27;;
13708;SDS011;54933;51.908;7.730;2023-02-26T10:10:29;38.97;;;2.50;;
13708;SDS011;54933;51.908;7.730;2023-02-26T10:13:02;24.93;;;3.03;;
13708;SDS011;54933;51.908;7.730;2023-02-26T10:15:29;21.47;;;2.20;;
13708;SDS011;54933;51.908;7.730;2023-02-26T10:18:05;17.20;;;2.33;;
13708;SDS011;54933;51.908;7.730;2023-02-26T10:20:34;30.97;;;3.27;;
13708;SDS011;54933;51.908;7.730;2023-02-26T10:23:14;21.83;;;1.73;;
13708;SDS011;54933;51.908;7.730;2023-02-26T10:25:55;10.17;;;1.10;;
13708;SDS011;54933;51.908;7.730;2023-02-26T10:28:35;12.77;;;1.70;;
13708;SDS011;54933;51.908;7.730;2023-02-26T10:31:16;12.53;;;1.20;;
13708;SDS011;54933;51.908;7.730;2023-02-26T10:33:52;10.47;;;1.27;;
13708;SDS011;54933;51.908;7.730;2023-02-26T10:36:22;205.80;;;12.67;;
13708;SDS011;54933;51.908;7.730;2023-02-26T10:38:51;98.93;;;6.57;;
13708;SDS011;54933;51.908;7.730;2023-02-26T10:41:24;71.17;;;4.87;;
13708;SDS011;54933;51.908;7.730;2023-02-26T10:43:59;54.17;;;3.53;;
13708;SDS011;54933;51.908;7.730;2023-02-26T10:46:36;46.20;;;3.70;;
13708;SDS011;54933;51.908;7.730;2023-02-26T10:52:14;31.03;;;3.13;;
13708;SDS011;54933;51.908;7.730;2023-02-26T10:54:45;24.27;;;3.53;;
13708;SDS011;54933;51.908;7.730;2023-02-26T10:57:23;19.10;;;2.40;;
13708;SDS011;54933;51.908;7.730;2023-02-26T10:59:53;23.87;;;1.87;;
13708;SDS011;54933;51.908;7.730;2023-02-26T11:02:38;22.40;;;2.10;;
13708;SDS011;54933;51.908;7.730;2023-02-26T11:05:14;9.00;;;1.50;;
13708;SDS011;54933;51.908;7.730;2023-02-26T11:07:41;17.23;;;2.17;;
13708;SDS011;54933;51.908;7.730;2023-02-26T11:10:15;34.13;;;3.37;;
13708;SDS011;54933;51.908;7.730;2023-02-26T11:12:43;24.40;;;3.60;;
13708;SDS011;54933;51.908;7.730;2023-02-26T11:15:13;49.03;;;4.50;;
13708;SDS011;54933;51.908;7.730;2023-02-26T11:17:39;24.43;;;4.37;;
13708;SDS011;54933;51.908;7.730;2023-02-26T11:20:13;18.63;;;4.33;;
13708;SDS011;54933;51.908;7.730;2023-02-26T11:22:45;25.93;;;4.13;;
13708;SDS011;54933;51.908;7.730;2023-02-26T11:25:13;16.33;;;3.43;;
13708;SDS011;54933;51.908;7.730;2023-02-26T11:27:42;19.57;;;3.80;;
13708;SDS011;54933;51.908;7.730;2023-02-26T11:30:16;20.27;;;3.63;;
13708;SDS011;54933;51.908;7.730;2023-02-26T11:32:44;27.87;;;3.60;;
13708;SDS011;54933;51.908;7.730;2023-02-26T11:35:14;15.47;;;3.23;;
13708;SDS011;54933;51.908;7.730;2023-02-26T11:37:41;12.13;;;2.63;;
13708;SDS011;54933;51.908;7.730;2023-02-26T11:40:15;18.13;;;2.93;;
13708;SDS011;54933;51.908;7.730;2023-02-26T11:42:55;19.23;;;2.97;;
13708;SDS011;54933;51.908;7.730;2023-02-26T11:45:24;17.07;;;2.73;;
13708;SDS011;54933;51.908;7.730;2023-02-26T11:47:56;18.73;;;2.60;;
13708;SDS011;54933;51.908;7.730;2023-02-26T11:50:26;11.33;;;2.27;;
13708;SDS011;54933;51.908;7.730;2023-02-26T11:52:55;10.43;;;2.20;;
13708;SDS011;54933;51.908;7.730;2023-02-26T11:55:29;14.43;;;2.37;;
13708;SDS011;54933;51.908;7.730;2023-02-26T11:57:56;10.27;;;2.30;;
13708;SDS011;54933;51.908;7.730;2023-02-26T12:02:57;15.73;;;2.73;;
13708;SDS011;54933;51.908;7.730;2023-02-26T12:05:26;11.67;;;2.47;;
13708;SDS011;54933;51.908;7.730;2023-02-26T12:07:52;7.03;;;2.23;;
13708;SDS011;54933;51.908;7.730;2023-02-26T12:10:20;9.27;;;2.07;;
13708;SDS011;54933;51.908;7.730;2023-02-26T12:26:26;7.90;;;1.57;;
13708;SDS011;54933;51.908;7.730;2023-02-26T12:31:55;4.80;;;1.50;;
13708;SDS011;54933;51.908;7.730;2023-02-26T12:40:18;5.57;;;1.53;;
13708;SDS011;54933;51.908;7.730;2023-02-26T12:43:09;4.03;;;1.30;;
13708;SDS011;54933;51.908;7.730;2023-02-26T12:48:25;3.83;;;1.10;;
13708;SDS011;54933;51.908;7.730;2023-02-26T12:56:58;4.23;;;1.30;;
13708;SDS011;54933;51.908;7.730;2023-02-26T13:09:01;5.10;;;1.20;;
13708;SDS011;54933;51.908;7.730;2023-02-26T13:17:01;46.10;;;5.23;;
13708;SDS011;54933;51.908;7.730;2023-02-26T13:19:41;5.90;;;1.00;;
13708;SDS011;54933;51.908;7.730;2023-02-26T13:24:54;46.47;;;4.53;;
13708;SDS011;54933;51.908;7.730;2023-02-26T13:27:25;21.60;;;2.10;;
13708;SDS011;54933;51.908;7.730;2023-02-26T13:32:34;20.47;;;2.23;;
13708;SDS011;54933;51.908;7.730;2023-02-26T13:35:06;12.40;;;2.47;;
13708;SDS011;54933;51.908;7.730;2023-02-26T13:37:44;23.33;;;2.47;;
13708;SDS011;54933;51.908;7.730;2023-02-26T13:43:27;16.67;;;2.10;;
13708;SDS011;54933;51.908;7.730;2023-02-26T13:46:45;16.83;;;1.77;;
13708;SDS011;54933;51.908;7.730;2023-02-26T13:48:54;14.87;;;1.87;;
13708;SDS011;54933;51.908;7.730;2023-02-26T13:51:26;23.00;;;2.60;;
13708;SDS011;54933;51.908;7.730;2023-02-26T13:54:46;22.10;;;1.60;;
13708;SDS011;54933;51.908;7.730;2023-02-26T13:56:53;14.07;;;1.33;;
13708;SDS011;54933;51.908;7.730;2023-02-26T13:59:37;24.30;;;2.50;;
13708;SDS011;54933;51.908;7.730;2023-02-26T14:04:50;13.13;;;1.37;;
13708;SDS011;54933;51.908;7.730;2023-02-26T14:07:26;33.77;;;2.10;;
13708;SDS011;54933;51.908;7.730;2023-02-26T14:10:23;77.67;;;6.23;;
13708;SDS011;54933;51.908;7.730;2023-02-26T14:13:10;63.83;;;4.73;;
13708;SDS011;54933;51.908;7.730;2023-02-26T14:15:41;71.47;;;4.97;;
13708;SDS011;54933;51.908;7.730;2023-02-26T14:18:29;85.37;;;5.10;;
13708;SDS011;54933;51.908;7.730;2023-02-26T14:23:51;88.30;;;5.27;;
13708;SDS011;54933;51.908;7.730;2023-02-26T14:26:21;61.80;;;3.90;;
13708;SDS011;54933;51.908;7.730;2023-02-26T14:28:54;20.50;;;1.87;;
13708;SDS011;54933;51.908;7.730;2023-02-26T14:31:22;30.57;;;3.27;;
13708;SDS011;54933;51.908;7.730;2023-02-26T14:34:06;30.73;;;2.93;;
13708;SDS011;54933;51.908;7.730;2023-02-26T14:39:23;16.43;;;2.20;;
13708;SDS011;54933;51.908;7.730;2023-02-26T14:41:56;31.27;;;2.43;;
13708;SDS011;54933;51.908;7.730;2023-02-26T14:44:26;22.27;;;2.20;;
13708;SDS011;54933;51.908;7.730;2023-02-26T14:46:54;22.67;;;2.70;;
13708;SDS011;54933;51.908;7.730;2023-02-26T14:57:20;27.50;;;2.77;;
13708;SDS011;54933;51.908;7.730;2023-02-26T15:00:09;42.53;;;3.00;;
13708;SDS011;54933;51.908;7.730;2023-02-26T15:02:48;41.83;;;3.63;;
13708;SDS011;54933;51.908;7.730;2023-02-26T15:08:13;32.77;;;3.03;;
13708;SDS011;54933;51.908;7.730;2023-02-26T15:10:50;22.17;;;2.23;;
13708;SDS011;54933;51.908;7.730;2023-02-26T15:19:20;25.77;;;3.10;;
13708;SDS011;54933;51.908;7.730;2023-02-26T15:24:51;43.37;;;4.27;;
13708;SDS011;54933;51.908;7.730;2023-02-26T15:27:17;23.50;;;2.57;;
13708;SDS011;54933;51.908;7.730;2023-02-26T15:29:44;21.83;;;2.57;;
13708;SDS011;54933;51.908;7.730;2023-02-26T15:32:21;29.53;;;1.83;;
13708;SDS011;54933;51.908;7.730;2023-02-26T15:34:59;33.90;;;3.57;;
13708;SDS011;54933;51.908;7.730;2023-02-26T15:37:28;46.10;;;4.17;;
13708;SDS011;54933;51.908;7.730;2023-02-26T15:39:57;38.00;;;2.70;;
13708;SDS011;54933;51.908;7.730;2023-02-26T15:42:26;27.23;;;2.70;;
13708;SDS011;54933;51.908;7.730;2023-02-26T15:44:57;29.90;;;2.27;;
13708;SDS011;54933;51.908;7.730;2023-02-26T15:47:26;23.50;;;2.80;;
13708;SDS011;54933;51.908;7.730;2023-02-26T15:49:52;19.60;;;2.20;;
13708;SDS011;54933;51.908;7.730;2023-02-26T15:52:19;15.10;;;1.70;;
13708;SDS011;54933;51.908;7.730;2023-02-26T15:54:48;8.50;;;2.00;;
13708;SDS011;54933;51.908;7.730;2023-02-26T15:57:16;15.80;;;1.37;;
13708;SDS011;54933;51.908;7.730;2023-02-26T15:59:47;14.70;;;1.60;;
13708;SDS011;54933;51.908;7.730;2023-02-26T16:02:14;14.00;;;1.83;;
13708;SDS011;54933;51.908;7.730;2023-02-26T16:04:43;12.97;;;1.63;;
13708;SDS011;54933;51.908;7.730;2023-02-26T16:07:10;9.23;;;1.10;;
13708;SDS011;54933;51.908;7.730;2023-02-26T16:09:40;15.00;;;1.30;;
13708;SDS011;54933;51.908;7.730;2023-02-26T16:12:11;11.37;;;1.43;;
13708;SDS011;54933;51.908;7.730;2023-02-26T16:14:40;14.67;;;1.60;;
13708;SDS011;54933;51.908;7.730;2023-02-26T16:17:11;7.30;;;1.30;;
13708;SDS011;54933;51.908;7.730;2023-02-26T16:19:42;18.67;;;1.07;;
13708;SDS011;54933;51.908;7.730;2023-02-26T16:22:56;14.27;;;1.57;;
13708;SDS011;54933;51.908;7.730;2023-02-26T16:24:59;8.07;;;0.97;;
13708;SDS011;54933;51.908;7.730;2023-02-26T16:27:29;10.20;;;0.90;;
13708;SDS011;54933;51.908;7.730;2023-02-26T16:29:56;4.93;;;1.30;;
13708;SDS011;54933;51.908;7.730;2023-02-26T16:32:24;76.20;;;5.37;;
13708;SDS011;54933;51.908;7.730;2023-02-26T16:34:53;131.67;;;8.70;;
13708;SDS011;54933;51.908;7.730;2023-02-26T16:37:23;34.73;;;3.37;;
13708;SDS011;54933;51.908;7.730;2023-02-26T16:39:51;28.27;;;2.87;;
13708;SDS011;54933;51.908;7.730;2023-02-26T16:42:20;26.37;;;2.13;;
13708;SDS011;54933;51.908;7.730;2023-02-26T16:47:44;18.30;;;2.63;;
13708;SDS011;54933;51.908;7.730;2023-02-26T16:50:18;12.13;;;1.57;;
13708;SDS011;54933;51.908;7.730;2023-02-26T16:52:51;19.73;;;2.07;;
13708;SDS011;54933;51.908;7.730;2023-02-26T16:55:24;26.77;;;1.90;;
13708;SDS011;54933;51.908;7.730;2023-02-26T16:57:51;17.77;;;1.43;;
13708;SDS011;54933;51.908;7.730;2023-02-26T17:02:54;17.07;;;1.60;;
13708;SDS011;54933;51.908;7.730;2023-02-26T17:05:52;19.20;;;1.60;;
13708;SDS011;54933;51.908;7.730;2023-02-26T17:08:22;7.03;;;1.33;;
13708;SDS011;54933;51.908;7.730;2023-02-26T17:13:29;13.20;;;1.70;;
13708;SDS011;54933;51.908;7.730;2023-02-26T17:16:03;8.73;;;1.63;;